sensor_id;sensor_type;location;lat;lon;timestamp;P1;durP1;ratioP1;P2;durP2;ratioP2
8230;SDS011;4156;50.908;6.974;2023-11-21T00:00:12;8.23;;;3.90;;
8230;SDS011;4156;50.908;6.974;2023-11-21T00:02:42;10.27;;;3.67;;
8230;SDS011;4156;50.908;6.974;2023-11-21T00:05:09;6.20;;;3.70;;
8230;SDS011;4156;50.908;6.974;2023-11-21T00:07:38;5.07;;;3.23;;
8230;SDS011;4156;50.908;6.974;2023-11-21T00:10:04;5.47;;;3.77;;
8230;SDS011;4156;50.908;6.974;2023-11-21T00:12:30;4.90;;;3.37;;
8230;SDS011;4156;50.908;6.974;2023-11-21T00:14:56;6.67;;;3.30;;
8230;SDS011;4156;50.908;6.974;2023-11-21T00:17:22;6.60;;;3.93;;
8230;SDS011;4156;50.908;6.974;2023-11-21T00:19:48;5.50;;;3.53;;
8230;SDS011;4156;50.908;6.974;2023-11-21T00:22:14;6.10;;;3.80;;
8230;SDS011;4156;50.908;6.974;2023-11-21T00:24:41;4.17;;;3.33;;
8230;SDS011;4156;50.908;6.974;2023-11-21T00:27:06;4.77;;;3.37;;
8230;SDS011;4156;50.908;6.974;2023-11-21T00:29:32;8.90;;;4.70;;
8230;SDS011;4156;50.908;6.974;2023-11-21T00:31:57;7.03;;;4.23;;
8230;SDS011;4156;50.908;6.974;2023-11-21T00:34:23;6.17;;;3.67;;
8230;SDS011;4156;50.908;6.974;2023-11-21T00:36:48;7.63;;;4.60;;
8230;SDS011;4156;50.908;6.974;2023-11-21T00:39:14;8.50;;;3.90;;
8230;SDS011;4156;50.908;6.974;2023-11-21T00:41:40;5.20;;;3.60;;
8230;SDS011;4156;50.908;6.974;2023-11-21T00:44:06;7.60;;;4.17;;
8230;SDS011;4156;50.908;6.974;2023-11-21T00:46:32;6.43;;;3.50;;
8230;SDS011;4156;50.908;6.974;2023-11-21T00:48:58;6.60;;;4.10;;
8230;SDS011;4156;50.908;6.974;2023-11-21T00:51:23;8.50;;;3.80;;
8230;SDS011;4156;50.908;6.974;2023-11-21T00:53:49;6.90;;;4.00;;
8230;SDS011;4156;50.908;6.974;2023-11-21T00:56:15;7.63;;;4.27;;
8230;SDS011;4156;50.908;6.974;2023-11-21T00:58:41;7.67;;;4.20;;
8230;SDS011;4156;50.908;6.974;2023-11-21T01:01:14;7.63;;;4.37;;
8230;SDS011;4156;50.908;6.974;2023-11-21T01:03:40;8.10;;;4.87;;
8230;SDS011;4156;50.908;6.974;2023-11-21T01:06:05;8.57;;;5.07;;
8230;SDS011;4156;50.908;6.974;2023-11-21T01:08:33;7.07;;;5.00;;
8230;SDS011;4156;50.908;6.974;2023-11-21T01:10:58;10.80;;;5.33;;
8230;SDS011;4156;50.908;6.974;2023-11-21T01:13:24;12.00;;;5.93;;
8230;SDS011;4156;50.908;6.974;2023-11-21T01:15:53;8.60;;;6.10;;
8230;SDS011;4156;50.908;6.974;2023-11-21T01:18:19;9.40;;;5.60;;
8230;SDS011;4156;50.908;6.974;2023-11-21T01:20:45;9.47;;;5.43;;
8230;SDS011;4156;50.908;6.974;2023-11-21T01:23:11;9.80;;;6.80;;
8230;SDS011;4156;50.908;6.974;2023-11-21T01:25:38;10.07;;;6.10;;
8230;SDS011;4156;50.908;6.974;2023-11-21T01:28:03;8.30;;;6.23;;
8230;SDS011;4156;50.908;6.974;2023-11-21T01:30:29;7.10;;;5.70;;
8230;SDS011;4156;50.908;6.974;2023-11-21T01:32:54;8.03;;;5.20;;
8230;SDS011;4156;50.908;6.974;2023-11-21T01:35:20;8.60;;;5.90;;
8230;SDS011;4156;50.908;6.974;2023-11-21T01:37:45;8.57;;;6.13;;
8230;SDS011;4156;50.908;6.974;2023-11-21T01:40:13;8.67;;;5.73;;
8230;SDS011;4156;50.908;6.974;2023-11-21T01:42:39;9.07;;;6.27;;
8230;SDS011;4156;50.908;6.974;2023-11-21T01:45:05;11.27;;;6.13;;
8230;SDS011;4156;50.908;6.974;2023-11-21T01:47:34;10.50;;;6.83;;
8230;SDS011;4156;50.908;6.974;2023-11-21T01:50:01;10.80;;;7.03;;
8230;SDS011;4156;50.908;6.974;2023-11-21T01:52:29;11.40;;;6.40;;
8230;SDS011;4156;50.908;6.974;2023-11-21T01:54:55;11.30;;;6.67;;
8230;SDS011;4156;50.908;6.974;2023-11-21T01:57:21;8.43;;;5.80;;
8230;SDS011;4156;50.908;6.974;2023-11-21T01:59:47;9.53;;;6.47;;
8230;SDS011;4156;50.908;6.974;2023-11-21T02:02:15;10.70;;;6.07;;
8230;SDS011;4156;50.908;6.974;2023-11-21T02:04:41;13.23;;;6.47;;
8230;SDS011;4156;50.908;6.974;2023-11-21T02:07:07;8.37;;;6.30;;
8230;SDS011;4156;50.908;6.974;2023-11-21T02:09:33;11.20;;;6.60;;
8230;SDS011;4156;50.908;6.974;2023-11-21T02:11:59;11.30;;;6.43;;
8230;SDS011;4156;50.908;6.974;2023-11-21T02:14:25;11.07;;;6.23;;
8230;SDS011;4156;50.908;6.974;2023-11-21T02:16:53;6.47;;;4.80;;
8230;SDS011;4156;50.908;6.974;2023-11-21T02:19:19;6.67;;;5.13;;
8230;SDS011;4156;50.908;6.974;2023-11-21T02:21:51;8.77;;;5.60;;
8230;SDS011;4156;50.908;6.974;2023-11-21T02:24:20;11.30;;;6.53;;
8230;SDS011;4156;50.908;6.974;2023-11-21T02:26:50;10.73;;;6.00;;
8230;SDS011;4156;50.908;6.974;2023-11-21T02:29:19;10.97;;;6.20;;
8230;SDS011;4156;50.908;6.974;2023-11-21T02:31:47;8.10;;;5.97;;
8230;SDS011;4156;50.908;6.974;2023-11-21T02:34:14;10.53;;;6.30;;
8230;SDS011;4156;50.908;6.974;2023-11-21T02:36:40;10.90;;;6.60;;
8230;SDS011;4156;50.908;6.974;2023-11-21T02:39:07;10.77;;;7.03;;
8230;SDS011;4156;50.908;6.974;2023-11-21T02:41:33;12.03;;;7.17;;
8230;SDS011;4156;50.908;6.974;2023-11-21T02:43:59;14.97;;;7.97;;
8230;SDS011;4156;50.908;6.974;2023-11-21T02:46:25;15.00;;;9.00;;
8230;SDS011;4156;50.908;6.974;2023-11-21T02:48:51;12.93;;;9.20;;
8230;SDS011;4156;50.908;6.974;2023-11-21T02:51:19;12.13;;;8.70;;
8230;SDS011;4156;50.908;6.974;2023-11-21T02:53:45;15.97;;;9.73;;
8230;SDS011;4156;50.908;6.974;2023-11-21T02:56:11;15.03;;;9.50;;
8230;SDS011;4156;50.908;6.974;2023-11-21T02:58:37;14.33;;;10.13;;
8230;SDS011;4156;50.908;6.974;2023-11-21T03:01:05;13.33;;;9.50;;
8230;SDS011;4156;50.908;6.974;2023-11-21T03:03:33;16.97;;;10.67;;
8230;SDS011;4156;50.908;6.974;2023-11-21T03:05:58;16.93;;;11.47;;
8230;SDS011;4156;50.908;6.974;2023-11-21T03:08:24;16.50;;;11.13;;
8230;SDS011;4156;50.908;6.974;2023-11-21T03:10:49;17.90;;;11.03;;
8230;SDS011;4156;50.908;6.974;2023-11-21T03:13:15;15.60;;;11.17;;
8230;SDS011;4156;50.908;6.974;2023-11-21T03:15:43;17.30;;;11.57;;
8230;SDS011;4156;50.908;6.974;2023-11-21T03:18:08;19.77;;;12.23;;
8230;SDS011;4156;50.908;6.974;2023-11-21T03:20:34;19.77;;;12.20;;
8230;SDS011;4156;50.908;6.974;2023-11-21T03:23:00;14.43;;;9.47;;
8230;SDS011;4156;50.908;6.974;2023-11-21T03:25:25;15.87;;;9.63;;
8230;SDS011;4156;50.908;6.974;2023-11-21T03:27:51;11.03;;;7.30;;
8230;SDS011;4156;50.908;6.974;2023-11-21T03:30:18;12.23;;;8.10;;
8230;SDS011;4156;50.908;6.974;2023-11-21T03:32:43;12.73;;;8.03;;
8230;SDS011;4156;50.908;6.974;2023-11-21T03:35:09;10.80;;;7.80;;
8230;SDS011;4156;50.908;6.974;2023-11-21T03:37:35;13.83;;;8.20;;
8230;SDS011;4156;50.908;6.974;2023-11-21T03:40:00;14.80;;;8.53;;
8230;SDS011;4156;50.908;6.974;2023-11-21T03:42:28;16.27;;;8.50;;
8230;SDS011;4156;50.908;6.974;2023-11-21T03:44:54;12.17;;;7.47;;
8230;SDS011;4156;50.908;6.974;2023-11-21T03:47:20;11.00;;;8.23;;
8230;SDS011;4156;50.908;6.974;2023-11-21T03:49:45;13.27;;;8.43;;
8230;SDS011;4156;50.908;6.974;2023-11-21T03:52:11;14.87;;;8.00;;
8230;SDS011;4156;50.908;6.974;2023-11-21T03:54:37;11.97;;;8.63;;
8230;SDS011;4156;50.908;6.974;2023-11-21T03:57:03;16.37;;;8.63;;
8230;SDS011;4156;50.908;6.974;2023-11-21T03:59:28;11.07;;;7.53;;
8230;SDS011;4156;50.908;6.974;2023-11-21T04:01:57;16.67;;;8.90;;
8230;SDS011;4156;50.908;6.974;2023-11-21T04:04:22;16.80;;;9.03;;
8230;SDS011;4156;50.908;6.974;2023-11-21T04:06:48;12.77;;;8.57;;
8230;SDS011;4156;50.908;6.974;2023-11-21T04:09:14;14.23;;;9.27;;
8230;SDS011;4156;50.908;6.974;2023-11-21T04:11:39;13.43;;;9.70;;
8230;SDS011;4156;50.908;6.974;2023-11-21T04:14:05;18.23;;;10.13;;
8230;SDS011;4156;50.908;6.974;2023-11-21T04:16:31;12.60;;;9.27;;
8230;SDS011;4156;50.908;6.974;2023-11-21T04:18:56;14.10;;;9.40;;
8230;SDS011;4156;50.908;6.974;2023-11-21T04:21:22;13.97;;;9.40;;
8230;SDS011;4156;50.908;6.974;2023-11-21T04:23:49;14.60;;;9.73;;
8230;SDS011;4156;50.908;6.974;2023-11-21T04:26:15;17.23;;;9.77;;
8230;SDS011;4156;50.908;6.974;2023-11-21T04:28:41;12.03;;;8.60;;
8230;SDS011;4156;50.908;6.974;2023-11-21T04:31:06;19.80;;;9.50;;
8230;SDS011;4156;50.908;6.974;2023-11-21T04:33:32;16.73;;;9.13;;
8230;SDS011;4156;50.908;6.974;2023-11-21T04:35:58;15.87;;;9.77;;
8230;SDS011;4156;50.908;6.974;2023-11-21T04:38:23;14.23;;;9.87;;
8230;SDS011;4156;50.908;6.974;2023-11-21T04:40:49;15.73;;;8.83;;
8230;SDS011;4156;50.908;6.974;2023-11-21T04:43:14;16.37;;;9.63;;
8230;SDS011;4156;50.908;6.974;2023-11-21T04:45:40;17.10;;;9.53;;
8230;SDS011;4156;50.908;6.974;2023-11-21T04:48:06;15.40;;;9.00;;
8230;SDS011;4156;50.908;6.974;2023-11-21T04:50:33;14.70;;;8.97;;
8230;SDS011;4156;50.908;6.974;2023-11-21T04:52:59;16.60;;;10.00;;
8230;SDS011;4156;50.908;6.974;2023-11-21T04:55:24;17.20;;;10.50;;
8230;SDS011;4156;50.908;6.974;2023-11-21T04:57:53;14.90;;;9.87;;
8230;SDS011;4156;50.908;6.974;2023-11-21T05:00:18;17.40;;;9.30;;
8230;SDS011;4156;50.908;6.974;2023-11-21T05:02:46;14.00;;;9.30;;
8230;SDS011;4156;50.908;6.974;2023-11-21T05:05:12;15.30;;;10.07;;
8230;SDS011;4156;50.908;6.974;2023-11-21T05:07:39;17.90;;;10.47;;
8230;SDS011;4156;50.908;6.974;2023-11-21T05:10:06;12.27;;;8.83;;
8230;SDS011;4156;50.908;6.974;2023-11-21T05:12:35;16.03;;;10.10;;
8230;SDS011;4156;50.908;6.974;2023-11-21T05:15:02;14.87;;;9.63;;
8230;SDS011;4156;50.908;6.974;2023-11-21T05:17:32;16.03;;;9.90;;
8230;SDS011;4156;50.908;6.974;2023-11-21T05:19:59;13.23;;;8.67;;
8230;SDS011;4156;50.908;6.974;2023-11-21T05:22:28;10.97;;;7.63;;
8230;SDS011;4156;50.908;6.974;2023-11-21T05:24:54;14.47;;;9.43;;
8230;SDS011;4156;50.908;6.974;2023-11-21T05:27:20;12.83;;;8.77;;
8230;SDS011;4156;50.908;6.974;2023-11-21T05:29:45;15.13;;;9.50;;
8230;SDS011;4156;50.908;6.974;2023-11-21T05:32:11;15.73;;;9.83;;
8230;SDS011;4156;50.908;6.974;2023-11-21T05:34:36;19.57;;;9.90;;
8230;SDS011;4156;50.908;6.974;2023-11-21T05:37:02;17.33;;;9.43;;
8230;SDS011;4156;50.908;6.974;2023-11-21T05:39:27;18.67;;;9.20;;
8230;SDS011;4156;50.908;6.974;2023-11-21T05:41:53;16.10;;;9.20;;
8230;SDS011;4156;50.908;6.974;2023-11-21T05:44:18;17.63;;;9.50;;
8230;SDS011;4156;50.908;6.974;2023-11-21T05:46:44;13.70;;;8.10;;
8230;SDS011;4156;50.908;6.974;2023-11-21T05:49:10;16.73;;;9.43;;
8230;SDS011;4156;50.908;6.974;2023-11-21T05:51:36;13.43;;;9.03;;
8230;SDS011;4156;50.908;6.974;2023-11-21T05:54:02;15.77;;;9.90;;
8230;SDS011;4156;50.908;6.974;2023-11-21T05:56:28;14.23;;;9.20;;
8230;SDS011;4156;50.908;6.974;2023-11-21T05:58:54;15.47;;;9.10;;
8230;SDS011;4156;50.908;6.974;2023-11-21T06:01:19;13.00;;;8.97;;
8230;SDS011;4156;50.908;6.974;2023-11-21T06:03:45;15.90;;;8.77;;
8230;SDS011;4156;50.908;6.974;2023-11-21T06:06:10;14.73;;;9.17;;
8230;SDS011;4156;50.908;6.974;2023-11-21T06:08:36;12.53;;;8.30;;
8230;SDS011;4156;50.908;6.974;2023-11-21T06:11:01;14.37;;;9.93;;
8230;SDS011;4156;50.908;6.974;2023-11-21T06:13:27;15.80;;;9.00;;
8230;SDS011;4156;50.908;6.974;2023-11-21T06:15:53;14.23;;;9.40;;
8230;SDS011;4156;50.908;6.974;2023-11-21T06:18:18;17.47;;;8.47;;
8230;SDS011;4156;50.908;6.974;2023-11-21T06:20:45;17.03;;;8.77;;
8230;SDS011;4156;50.908;6.974;2023-11-21T06:23:11;12.40;;;9.33;;
8230;SDS011;4156;50.908;6.974;2023-11-21T06:25:36;14.93;;;9.50;;
8230;SDS011;4156;50.908;6.974;2023-11-21T06:28:02;15.63;;;9.30;;
8230;SDS011;4156;50.908;6.974;2023-11-21T06:30:27;18.37;;;10.07;;
8230;SDS011;4156;50.908;6.974;2023-11-21T06:32:54;14.47;;;9.03;;
8230;SDS011;4156;50.908;6.974;2023-11-21T06:35:21;15.90;;;9.73;;
8230;SDS011;4156;50.908;6.974;2023-11-21T06:37:46;18.57;;;9.03;;
8230;SDS011;4156;50.908;6.974;2023-11-21T06:40:16;15.80;;;9.10;;
8230;SDS011;4156;50.908;6.974;2023-11-21T06:42:43;15.07;;;9.20;;
8230;SDS011;4156;50.908;6.974;2023-11-21T06:45:09;14.63;;;10.23;;
8230;SDS011;4156;50.908;6.974;2023-11-21T06:47:36;13.60;;;8.63;;
8230;SDS011;4156;50.908;6.974;2023-11-21T06:50:02;12.03;;;8.37;;
8230;SDS011;4156;50.908;6.974;2023-11-21T06:52:28;12.50;;;7.43;;
8230;SDS011;4156;50.908;6.974;2023-11-21T06:54:54;11.17;;;6.97;;
8230;SDS011;4156;50.908;6.974;2023-11-21T06:57:20;13.77;;;8.70;;
8230;SDS011;4156;50.908;6.974;2023-11-21T06:59:47;11.60;;;8.17;;
8230;SDS011;4156;50.908;6.974;2023-11-21T07:02:13;14.13;;;9.20;;
8230;SDS011;4156;50.908;6.974;2023-11-21T07:04:39;13.57;;;8.77;;
8230;SDS011;4156;50.908;6.974;2023-11-21T07:07:06;16.43;;;10.13;;
8230;SDS011;4156;50.908;6.974;2023-11-21T07:09:34;18.20;;;10.30;;
8230;SDS011;4156;50.908;6.974;2023-11-21T07:12:00;16.40;;;9.97;;
8230;SDS011;4156;50.908;6.974;2023-11-21T07:14:26;15.73;;;9.87;;
8230;SDS011;4156;50.908;6.974;2023-11-21T07:16:52;14.60;;;10.13;;
8230;SDS011;4156;50.908;6.974;2023-11-21T07:19:17;19.30;;;9.80;;
8230;SDS011;4156;50.908;6.974;2023-11-21T07:21:43;12.27;;;8.30;;
8230;SDS011;4156;50.908;6.974;2023-11-21T07:24:08;12.80;;;8.33;;
8230;SDS011;4156;50.908;6.974;2023-11-21T07:26:34;16.73;;;10.37;;
8230;SDS011;4156;50.908;6.974;2023-11-21T07:29:00;20.20;;;11.27;;
8230;SDS011;4156;50.908;6.974;2023-11-21T07:31:27;18.43;;;11.20;;
8230;SDS011;4156;50.908;6.974;2023-11-21T07:33:54;20.93;;;12.00;;
8230;SDS011;4156;50.908;6.974;2023-11-21T07:36:19;18.37;;;11.00;;
8230;SDS011;4156;50.908;6.974;2023-11-21T07:38:48;16.87;;;11.13;;
8230;SDS011;4156;50.908;6.974;2023-11-21T07:41:14;20.43;;;11.63;;
8230;SDS011;4156;50.908;6.974;2023-11-21T07:43:42;17.23;;;11.03;;
8230;SDS011;4156;50.908;6.974;2023-11-21T07:46:09;18.53;;;12.40;;
8230;SDS011;4156;50.908;6.974;2023-11-21T07:48:35;29.00;;;13.00;;
8230;SDS011;4156;50.908;6.974;2023-11-21T07:51:01;19.83;;;12.27;;
8230;SDS011;4156;50.908;6.974;2023-11-21T07:53:31;19.67;;;12.83;;
8230;SDS011;4156;50.908;6.974;2023-11-21T07:55:58;24.07;;;13.17;;
8230;SDS011;4156;50.908;6.974;2023-11-21T07:58:27;18.97;;;12.43;;
8230;SDS011;4156;50.908;6.974;2023-11-21T08:00:53;17.30;;;11.70;;
8230;SDS011;4156;50.908;6.974;2023-11-21T08:03:19;20.13;;;12.13;;
8230;SDS011;4156;50.908;6.974;2023-11-21T08:05:44;19.97;;;12.93;;
8230;SDS011;4156;50.908;6.974;2023-11-21T08:08:10;22.83;;;12.87;;
8230;SDS011;4156;50.908;6.974;2023-11-21T08:10:36;22.50;;;13.50;;
8230;SDS011;4156;50.908;6.974;2023-11-21T08:13:02;21.53;;;13.13;;
8230;SDS011;4156;50.908;6.974;2023-11-21T08:15:29;19.60;;;13.37;;
8230;SDS011;4156;50.908;6.974;2023-11-21T08:17:57;18.90;;;12.60;;
8230;SDS011;4156;50.908;6.974;2023-11-21T08:20:23;27.93;;;14.53;;
8230;SDS011;4156;50.908;6.974;2023-11-21T08:22:50;22.83;;;14.30;;
8230;SDS011;4156;50.908;6.974;2023-11-21T08:25:16;23.23;;;14.50;;
8230;SDS011;4156;50.908;6.974;2023-11-21T08:27:44;24.87;;;15.30;;
8230;SDS011;4156;50.908;6.974;2023-11-21T08:30:10;22.60;;;13.67;;
8230;SDS011;4156;50.908;6.974;2023-11-21T08:32:37;21.03;;;12.70;;
8230;SDS011;4156;50.908;6.974;2023-11-21T08:35:03;23.00;;;14.90;;
8230;SDS011;4156;50.908;6.974;2023-11-21T08:37:29;21.20;;;13.43;;
8230;SDS011;4156;50.908;6.974;2023-11-21T08:39:55;25.33;;;13.67;;
8230;SDS011;4156;50.908;6.974;2023-11-21T08:42:24;20.17;;;14.37;;
8230;SDS011;4156;50.908;6.974;2023-11-21T08:44:50;22.70;;;13.80;;
8230;SDS011;4156;50.908;6.974;2023-11-21T08:47:16;26.60;;;15.23;;
8230;SDS011;4156;50.908;6.974;2023-11-21T08:49:41;20.10;;;12.77;;
8230;SDS011;4156;50.908;6.974;2023-11-21T08:52:07;21.67;;;13.37;;
8230;SDS011;4156;50.908;6.974;2023-11-21T08:54:33;17.87;;;12.77;;
8230;SDS011;4156;50.908;6.974;2023-11-21T08:56:59;15.33;;;11.53;;
8230;SDS011;4156;50.908;6.974;2023-11-21T08:59:25;20.23;;;13.50;;
8230;SDS011;4156;50.908;6.974;2023-11-21T09:01:51;20.77;;;14.63;;
8230;SDS011;4156;50.908;6.974;2023-11-21T09:04:17;23.90;;;14.20;;
8230;SDS011;4156;50.908;6.974;2023-11-21T09:06:42;26.50;;;14.53;;
8230;SDS011;4156;50.908;6.974;2023-11-21T09:09:08;22.73;;;15.00;;
8230;SDS011;4156;50.908;6.974;2023-11-21T09:11:35;27.03;;;17.10;;
8230;SDS011;4156;50.908;6.974;2023-11-21T09:14:01;28.07;;;17.57;;
8230;SDS011;4156;50.908;6.974;2023-11-21T09:16:28;30.00;;;17.03;;
8230;SDS011;4156;50.908;6.974;2023-11-21T09:18:54;30.73;;;17.33;;
8230;SDS011;4156;50.908;6.974;2023-11-21T09:21:19;31.77;;;17.77;;
8230;SDS011;4156;50.908;6.974;2023-11-21T09:23:45;30.93;;;17.30;;
8230;SDS011;4156;50.908;6.974;2023-11-21T09:26:11;31.33;;;17.70;;
8230;SDS011;4156;50.908;6.974;2023-11-21T09:28:36;28.23;;;16.77;;
8230;SDS011;4156;50.908;6.974;2023-11-21T09:31:04;29.20;;;17.77;;
8230;SDS011;4156;50.908;6.974;2023-11-21T09:33:30;27.37;;;16.57;;
8230;SDS011;4156;50.908;6.974;2023-11-21T09:35:56;35.77;;;16.33;;
8230;SDS011;4156;50.908;6.974;2023-11-21T09:38:22;32.33;;;17.77;;
8230;SDS011;4156;50.908;6.974;2023-11-21T09:40:48;28.70;;;16.03;;
8230;SDS011;4156;50.908;6.974;2023-11-21T09:43:18;31.17;;;15.60;;
8230;SDS011;4156;50.908;6.974;2023-11-21T09:45:47;29.80;;;15.93;;
8230;SDS011;4156;50.908;6.974;2023-11-21T09:48:18;28.37;;;16.17;;
8230;SDS011;4156;50.908;6.974;2023-11-21T09:50:46;26.97;;;15.60;;
8230;SDS011;4156;50.908;6.974;2023-11-21T09:53:13;30.60;;;16.13;;
8230;SDS011;4156;50.908;6.974;2023-11-21T09:55:48;32.87;;;16.13;;
8230;SDS011;4156;50.908;6.974;2023-11-21T09:58:16;34.73;;;16.90;;
8230;SDS011;4156;50.908;6.974;2023-11-21T10:00:46;34.10;;;17.90;;
8230;SDS011;4156;50.908;6.974;2023-11-21T10:03:13;25.83;;;15.67;;
8230;SDS011;4156;50.908;6.974;2023-11-21T10:05:40;32.23;;;17.30;;
8230;SDS011;4156;50.908;6.974;2023-11-21T10:08:09;30.43;;;17.73;;
8230;SDS011;4156;50.908;6.974;2023-11-21T10:10:44;31.67;;;16.67;;
8230;SDS011;4156;50.908;6.974;2023-11-21T10:13:21;27.60;;;15.93;;
8230;SDS011;4156;50.908;6.974;2023-11-21T10:15:49;27.17;;;15.50;;
8230;SDS011;4156;50.908;6.974;2023-11-21T10:18:19;29.20;;;16.30;;
8230;SDS011;4156;50.908;6.974;2023-11-21T10:21:17;31.97;;;17.90;;
8230;SDS011;4156;50.908;6.974;2023-11-21T10:23:46;32.60;;;17.00;;
8230;SDS011;4156;50.908;6.974;2023-11-21T10:26:23;29.97;;;17.60;;
8230;SDS011;4156;50.908;6.974;2023-11-21T10:29:16;32.63;;;17.40;;
8230;SDS011;4156;50.908;6.974;2023-11-21T10:31:48;28.63;;;17.30;;
8230;SDS011;4156;50.908;6.974;2023-11-21T10:34:26;35.60;;;18.90;;
8230;SDS011;4156;50.908;6.974;2023-11-21T10:36:55;27.77;;;16.77;;
8230;SDS011;4156;50.908;6.974;2023-11-21T10:39:28;29.13;;;17.23;;
8230;SDS011;4156;50.908;6.974;2023-11-21T10:45:30;28.47;;;16.80;;
8230;SDS011;4156;50.908;6.974;2023-11-21T10:51:47;23.03;;;14.93;;
8230;SDS011;4156;50.908;6.974;2023-11-21T10:54:22;23.17;;;15.30;;
8230;SDS011;4156;50.908;6.974;2023-11-21T10:57:29;26.17;;;15.40;;
8230;SDS011;4156;50.908;6.974;2023-11-21T11:00:00;21.70;;;13.10;;
8230;SDS011;4156;50.908;6.974;2023-11-21T11:02:30;24.93;;;13.93;;
8230;SDS011;4156;50.908;6.974;2023-11-21T11:05:09;24.10;;;13.77;;
8230;SDS011;4156;50.908;6.974;2023-11-21T11:07:43;17.27;;;11.43;;
8230;SDS011;4156;50.908;6.974;2023-11-21T11:10:19;23.43;;;13.67;;
8230;SDS011;4156;50.908;6.974;2023-11-21T11:13:07;24.47;;;13.73;;
8230;SDS011;4156;50.908;6.974;2023-11-21T11:15:58;30.13;;;14.07;;
8230;SDS011;4156;50.908;6.974;2023-11-21T11:18:31;26.00;;;14.73;;
8230;SDS011;4156;50.908;6.974;2023-11-21T11:20:59;28.57;;;16.10;;
8230;SDS011;4156;50.908;6.974;2023-11-21T11:23:57;26.43;;;14.43;;
8230;SDS011;4156;50.908;6.974;2023-11-21T11:30:23;21.47;;;12.67;;
8230;SDS011;4156;50.908;6.974;2023-11-21T11:33:36;27.37;;;14.77;;
8230;SDS011;4156;50.908;6.974;2023-11-21T11:38:44;32.50;;;15.40;;
8230;SDS011;4156;50.908;6.974;2023-11-21T11:41:15;31.17;;;15.80;;
8230;SDS011;4156;50.908;6.974;2023-11-21T11:43:55;26.07;;;14.10;;
8230;SDS011;4156;50.908;6.974;2023-11-21T11:49:23;29.73;;;14.90;;
8230;SDS011;4156;50.908;6.974;2023-11-21T11:55:03;25.33;;;14.63;;
8230;SDS011;4156;50.908;6.974;2023-11-21T11:57:41;26.03;;;13.87;;
8230;SDS011;4156;50.908;6.974;2023-11-21T12:02:58;16.37;;;9.73;;
8230;SDS011;4156;50.908;6.974;2023-11-21T12:05:28;28.43;;;14.47;;
8230;SDS011;4156;50.908;6.974;2023-11-21T12:07:58;26.00;;;13.73;;
8230;SDS011;4156;50.908;6.974;2023-11-21T12:10:39;28.57;;;14.93;;
8230;SDS011;4156;50.908;6.974;2023-11-21T12:13:15;25.00;;;13.17;;
8230;SDS011;4156;50.908;6.974;2023-11-21T12:15:46;22.10;;;12.60;;
8230;SDS011;4156;50.908;6.974;2023-11-21T12:18:14;26.03;;;13.47;;
8230;SDS011;4156;50.908;6.974;2023-11-21T12:20:48;24.23;;;13.67;;
8230;SDS011;4156;50.908;6.974;2023-11-21T12:23:47;28.57;;;13.53;;
8230;SDS011;4156;50.908;6.974;2023-11-21T12:26:13;24.03;;;12.73;;
8230;SDS011;4156;50.908;6.974;2023-11-21T12:28:42;24.43;;;10.87;;
8230;SDS011;4156;50.908;6.974;2023-11-21T12:31:40;23.27;;;11.83;;
8230;SDS011;4156;50.908;6.974;2023-11-21T12:34:07;24.60;;;13.77;;
8230;SDS011;4156;50.908;6.974;2023-11-21T12:36:45;20.73;;;11.63;;
8230;SDS011;4156;50.908;6.974;2023-11-21T12:39:19;19.20;;;12.00;;
8230;SDS011;4156;50.908;6.974;2023-11-21T12:41:49;30.73;;;15.00;;
8230;SDS011;4156;50.908;6.974;2023-11-21T12:44:21;21.63;;;11.60;;
8230;SDS011;4156;50.908;6.974;2023-11-21T12:46:49;24.17;;;13.87;;
8230;SDS011;4156;50.908;6.974;2023-11-21T12:49:15;20.33;;;12.77;;
8230;SDS011;4156;50.908;6.974;2023-11-21T12:51:46;29.50;;;13.40;;
8230;SDS011;4156;50.908;6.974;2023-11-21T12:54:14;27.13;;;15.30;;
8230;SDS011;4156;50.908;6.974;2023-11-21T12:56:45;34.40;;;15.60;;
8230;SDS011;4156;50.908;6.974;2023-11-21T12:59:15;30.43;;;15.27;;
8230;SDS011;4156;50.908;6.974;2023-11-21T13:01:53;32.63;;;15.90;;
8230;SDS011;4156;50.908;6.974;2023-11-21T13:04:29;31.50;;;15.93;;
8230;SDS011;4156;50.908;6.974;2023-11-21T13:07:02;30.90;;;15.77;;
8230;SDS011;4156;50.908;6.974;2023-11-21T13:09:39;31.60;;;17.10;;
8230;SDS011;4156;50.908;6.974;2023-11-21T13:12:06;32.50;;;16.70;;
8230;SDS011;4156;50.908;6.974;2023-11-21T13:14:33;37.67;;;17.30;;
8230;SDS011;4156;50.908;6.974;2023-11-21T13:17:06;32.07;;;16.70;;
8230;SDS011;4156;50.908;6.974;2023-11-21T13:19:35;37.60;;;16.63;;
8230;SDS011;4156;50.908;6.974;2023-11-21T13:22:03;32.60;;;16.93;;
8230;SDS011;4156;50.908;6.974;2023-11-21T13:24:33;28.40;;;15.27;;
8230;SDS011;4156;50.908;6.974;2023-11-21T13:27:02;29.50;;;15.47;;
8230;SDS011;4156;50.908;6.974;2023-11-21T13:29:56;30.43;;;13.57;;
8230;SDS011;4156;50.908;6.974;2023-11-21T13:33:11;31.83;;;14.73;;
8230;SDS011;4156;50.908;6.974;2023-11-21T13:43:15;30.73;;;14.83;;
8230;SDS011;4156;50.908;6.974;2023-11-21T13:46:49;28.33;;;15.50;;
8230;SDS011;4156;50.908;6.974;2023-11-21T13:53:28;31.50;;;15.23;;
8230;SDS011;4156;50.908;6.974;2023-11-21T13:56:46;26.30;;;12.90;;
8230;SDS011;4156;50.908;6.974;2023-11-21T14:00:07;26.70;;;14.20;;
8230;SDS011;4156;50.908;6.974;2023-11-21T14:03:20;26.80;;;13.90;;
8230;SDS011;4156;50.908;6.974;2023-11-21T14:06:52;24.30;;;14.07;;
8230;SDS011;4156;50.908;6.974;2023-11-21T14:09:23;27.83;;;15.33;;
8230;SDS011;4156;50.908;6.974;2023-11-21T14:12:04;26.60;;;14.97;;
8230;SDS011;4156;50.908;6.974;2023-11-21T14:17:53;30.33;;;14.63;;
8230;SDS011;4156;50.908;6.974;2023-11-21T14:21:04;30.13;;;15.00;;
8230;SDS011;4156;50.908;6.974;2023-11-21T14:23:42;34.23;;;17.07;;
8230;SDS011;4156;50.908;6.974;2023-11-21T14:26:35;34.70;;;16.60;;
8230;SDS011;4156;50.908;6.974;2023-11-21T14:29:46;27.17;;;15.70;;
8230;SDS011;4156;50.908;6.974;2023-11-21T14:35:44;35.97;;;16.77;;
8230;SDS011;4156;50.908;6.974;2023-11-21T14:38:48;32.93;;;15.97;;
8230;SDS011;4156;50.908;6.974;2023-11-21T14:41:58;34.70;;;16.43;;
8230;SDS011;4156;50.908;6.974;2023-11-21T14:44:48;36.30;;;17.87;;
8230;SDS011;4156;50.908;6.974;2023-11-21T14:47:26;34.27;;;15.97;;
8230;SDS011;4156;50.908;6.974;2023-11-21T14:50:46;40.37;;;17.57;;
8230;SDS011;4156;50.908;6.974;2023-11-21T14:53:29;35.57;;;16.30;;
8230;SDS011;4156;50.908;6.974;2023-11-21T14:56:52;33.63;;;17.80;;
8230;SDS011;4156;50.908;6.974;2023-11-21T14:59:19;33.60;;;17.47;;
8230;SDS011;4156;50.908;6.974;2023-11-21T15:01:45;36.07;;;16.83;;
8230;SDS011;4156;50.908;6.974;2023-11-21T15:04:23;36.93;;;18.03;;
8230;SDS011;4156;50.908;6.974;2023-11-21T15:07:02;27.93;;;15.93;;
8230;SDS011;4156;50.908;6.974;2023-11-21T15:09:29;37.23;;;17.93;;
8230;SDS011;4156;50.908;6.974;2023-11-21T15:11:58;32.87;;;16.77;;
8230;SDS011;4156;50.908;6.974;2023-11-21T15:14:46;33.77;;;16.80;;
8230;SDS011;4156;50.908;6.974;2023-11-21T15:17:15;33.17;;;16.30;;
8230;SDS011;4156;50.908;6.974;2023-11-21T15:19:55;35.13;;;16.03;;
8230;SDS011;4156;50.908;6.974;2023-11-21T15:22:21;32.23;;;15.67;;
8230;SDS011;4156;50.908;6.974;2023-11-21T15:24:47;30.60;;;16.63;;
8230;SDS011;4156;50.908;6.974;2023-11-21T15:27:14;37.43;;;17.03;;
8230;SDS011;4156;50.908;6.974;2023-11-21T15:29:40;39.33;;;16.50;;
8230;SDS011;4156;50.908;6.974;2023-11-21T15:32:07;36.37;;;17.37;;
8230;SDS011;4156;50.908;6.974;2023-11-21T15:34:33;38.00;;;16.90;;
8230;SDS011;4156;50.908;6.974;2023-11-21T15:36:59;38.47;;;16.33;;
8230;SDS011;4156;50.908;6.974;2023-11-21T15:39:24;33.67;;;16.37;;
8230;SDS011;4156;50.908;6.974;2023-11-21T15:41:54;26.80;;;13.97;;
8230;SDS011;4156;50.908;6.974;2023-11-21T15:44:20;39.47;;;16.70;;
8230;SDS011;4156;50.908;6.974;2023-11-21T15:46:45;25.00;;;12.87;;
8230;SDS011;4156;50.908;6.974;2023-11-21T15:49:12;36.90;;;16.30;;
8230;SDS011;4156;50.908;6.974;2023-11-21T15:51:39;37.00;;;16.77;;
8230;SDS011;4156;50.908;6.974;2023-11-21T15:54:09;32.70;;;15.27;;